Time;durP1;ratioP1;P1;durP2;ratioP2;P2;SDS_P1;SDS_P2;PMS_P1;PMS_P2;Temp;Humidity;BMP_temperature;BMP_pressure;BME280_temperature;BME280_humidity;BME280_pressure;Samples;Min_cycle;Max_cycle;Signal;HPM_P1;HPM_P2
2022/04/14 00:00:35;;;;;;;26.10;17.90;;;;;;;;;;4979096;28;20173;-35
2022/04/14 00:03:01;;;;;;;26.20;20.40;;;;;;;;;;4980190;28;20663;-34
2022/04/14 00:05:27;;;;;;;25.20;19.50;;;;;;;;;;4985472;28;20680;-35
2022/04/14 00:07:53;;;;;;;26.07;19.63;;;;;;;;;;4978767;28;20703;-35
2022/04/14 00:10:20;;;;;;;31.47;23.10;;;;;;;;;;5011687;28;20250;-35
2022/04/14 00:12:48;;;;;;;27.13;21.93;;;;;;;;;;4983586;28;20645;-35
2022/04/14 00:15:14;;;;;;;34.57;22.83;;;;;;;;;;4981826;28;20706;-35
2022/04/14 00:17:40;;;;;;;30.07;24.13;;;;;;;;;;4977346;28;20185;-35
2022/04/14 00:20:07;;;;;;;32.37;24.97;;;;;;;;;;4981094;28;20283;-35
2022/04/14 00:22:34;;;;;;;31.40;23.50;;;;;;;;;;4981495;28;20184;-35
2022/04/14 00:25:00;;;;;;;32.60;23.60;;;;;;;;;;4978192;28;20798;-35
2022/04/14 00:27:26;;;;;;;31.13;25.03;;;;;;;;;;4979097;28;20603;-35
2022/04/14 00:29:52;;;;;;;31.27;24.50;;;;;;;;;;4982174;28;20176;-35
2022/04/14 00:32:18;;;;;;;30.83;23.97;;;;;;;;;;4983270;28;20623;-35
2022/04/14 00:34:44;;;;;;;33.97;24.27;;;;;;;;;;4982046;28;20209;-35
2022/04/14 00:37:11;;;;;;;30.50;22.23;;;;;;;;;;4976595;28;20541;-35
2022/04/14 00:39:37;;;;;;;26.53;21.40;;;;;;;;;;4979367;28;20548;-35
2022/04/14 00:42:13;;;;;;;33.10;22.90;;;;;;;;;;4981011;28;20185;-35
2022/04/14 00:44:40;;;;;;;32.90;22.77;;;;;;;;;;4979940;28;20608;-35
2022/04/14 00:47:07;;;;;;;30.30;22.00;;;;;;;;;;4981053;28;20410;-35
2022/04/14 00:49:33;;;;;;;30.93;23.60;;;;;;;;;;4980128;28;20585;-35
2022/04/14 00:52:03;;;;;;;32.73;22.93;;;;;;;;;;4983206;28;20814;-35
2022/04/14 00:54:30;;;;;;;36.47;26.00;;;;;;;;;;4976566;28;20525;-35
2022/04/14 00:57:00;;;;;;;39.37;27.60;;;;;;;;;;4976914;28;20260;-35
2022/04/14 00:59:26;;;;;;;37.70;26.50;;;;;;;;;;4975689;28;20199;-35
2022/04/14 01:01:53;;;;;;;42.30;27.97;;;;;;;;;;4979690;28;20579;-35
2022/04/14 01:04:20;;;;;;;41.47;26.80;;;;;;;;;;4978290;28;20228;-35
2022/04/14 01:06:46;;;;;;;39.30;26.50;;;;;;;;;;4977154;28;20520;-35
2022/04/14 01:09:16;;;;;;;36.43;26.23;;;;;;;;;;4978646;28;20406;-34
2022/04/14 01:11:50;;;;;;;34.53;24.70;;;;;;;;;;5012886;28;20751;-35
2022/04/14 01:14:27;;;;;;;36.03;24.53;;;;;;;;;;4978061;28;20520;-35
2022/04/14 01:16:53;;;;;;;36.70;26.20;;;;;;;;;;4977624;28;20247;-35
2022/04/14 01:19:20;;;;;;;37.60;26.23;;;;;;;;;;4978407;28;20173;-35
2022/04/14 01:21:46;;;;;;;34.77;23.77;;;;;;;;;;4978991;28;20184;-35
2022/04/14 01:24:14;;;;;;;35.77;24.80;;;;;;;;;;4972017;28;20592;-35
2022/04/14 01:26:40;;;;;;;34.53;24.47;;;;;;;;;;4976212;28;20748;-34
2022/04/14 01:29:07;;;;;;;33.23;22.37;;;;;;;;;;4976765;28;21278;-35
2022/04/14 01:31:33;;;;;;;30.03;22.90;;;;;;;;;;4977324;28;20460;-34
2022/04/14 01:33:59;;;;;;;31.60;24.57;;;;;;;;;;4979210;28;21175;-35
2022/04/14 01:36:25;;;;;;;28.67;22.83;;;;;;;;;;4976516;28;20505;-35
2022/04/14 01:38:51;;;;;;;29.07;23.67;;;;;;;;;;4974930;28;21098;-35
2022/04/14 01:41:17;;;;;;;33.00;24.23;;;;;;;;;;4978762;28;20594;-35
2022/04/14 01:43:43;;;;;;;33.30;24.10;;;;;;;;;;4975229;28;20767;-35
2022/04/14 01:46:09;;;;;;;32.70;23.87;;;;;;;;;;4975887;28;20993;-35
2022/04/14 01:48:38;;;;;;;36.97;26.57;;;;;;;;;;4976040;28;20841;-35
2022/04/14 01:51:05;;;;;;;35.37;24.80;;;;;;;;;;4972345;28;20407;-35
2022/04/14 01:53:31;;;;;;;34.57;24.83;;;;;;;;;;4978462;28;20414;-35
2022/04/14 01:55:57;;;;;;;32.20;23.47;;;;;;;;;;4978798;28;20431;-35
2022/04/14 01:58:23;;;;;;;33.10;25.53;;;;;;;;;;4974838;28;20938;-35
2022/04/14 02:00:49;;;;;;;36.43;24.87;;;;;;;;;;4975443;28;20416;-34
2022/04/14 02:03:15;;;;;;;32.30;25.80;;;;;;;;;;4976584;28;20419;-35
2022/04/14 02:05:41;;;;;;;38.03;26.27;;;;;;;;;;4978044;28;20785;-34
2022/04/14 02:08:08;;;;;;;34.97;26.40;;;;;;;;;;4976706;28;21256;-34
2022/04/14 02:10:34;;;;;;;32.90;24.73;;;;;;;;;;4975063;28;20734;-34
2022/04/14 02:13:00;;;;;;;32.30;25.17;;;;;;;;;;4979359;28;20995;-35
2022/04/14 02:15:26;;;;;;;36.73;28.10;;;;;;;;;;4975009;28;21366;-34
2022/04/14 02:17:52;;;;;;;37.77;28.37;;;;;;;;;;4971814;28;20420;-35
2022/04/14 02:20:18;;;;;;;40.07;29.50;;;;;;;;;;4976867;28;20421;-35
2022/04/14 02:22:44;;;;;;;41.27;29.07;;;;;;;;;;4980423;28;20428;-34
2022/04/14 02:25:11;;;;;;;41.17;29.43;;;;;;;;;;4971405;28;20728;-35
2022/04/14 02:27:37;;;;;;;39.53;28.47;;;;;;;;;;4972507;28;20530;-34
2022/04/14 02:30:04;;;;;;;37.37;27.47;;;;;;;;;;4979125;28;20575;-35
2022/04/14 02:32:30;;;;;;;37.37;26.63;;;;;;;;;;4975560;28;20765;-35
2022/04/14 02:34:56;;;;;;;33.73;26.20;;;;;;;;;;4974050;28;20718;-35
2022/04/14 02:37:22;;;;;;;31.63;24.03;;;;;;;;;;4976845;28;20439;-35
2022/04/14 02:39:48;;;;;;;37.10;26.57;;;;;;;;;;4976837;28;20939;-34
2022/04/14 02:42:14;;;;;;;37.57;26.83;;;;;;;;;;4973484;28;20428;-34
2022/04/14 02:44:40;;;;;;;40.17;28.53;;;;;;;;;;4970196;28;20447;-35
2022/04/14 02:47:06;;;;;;;35.30;27.43;;;;;;;;;;4974665;28;20870;-35
2022/04/14 02:49:32;;;;;;;32.57;23.70;;;;;;;;;;4976925;28;20428;-34
2022/04/14 02:51:59;;;;;;;32.03;24.40;;;;;;;;;;4977229;28;20839;-36
2022/04/14 02:54:25;;;;;;;35.90;25.43;;;;;;;;;;4973502;28;20725;-35
2022/04/14 02:56:51;;;;;;;32.07;23.23;;;;;;;;;;4975198;28;20815;-34
2022/04/14 02:59:17;;;;;;;32.93;24.27;;;;;;;;;;4975404;28;20746;-35
2022/04/14 03:01:43;;;;;;;36.27;26.60;;;;;;;;;;4976811;28;20897;-34
2022/04/14 03:04:09;;;;;;;39.50;24.97;;;;;;;;;;4970933;28;20455;-34
2022/04/14 03:06:36;;;;;;;34.27;24.80;;;;;;;;;;4976328;28;20434;-34
2022/04/14 03:09:02;;;;;;;35.30;25.57;;;;;;;;;;4977595;28;20604;-34
2022/04/14 03:11:28;;;;;;;34.93;25.73;;;;;;;;;;4983596;28;20553;-34
2022/04/14 03:13:54;;;;;;;37.67;26.10;;;;;;;;;;4976679;28;20506;-34
2022/04/14 03:16:20;;;;;;;38.33;27.43;;;;;;;;;;4974034;28;20858;-34
2022/04/14 03:18:46;;;;;;;35.67;27.67;;;;;;;;;;4974982;28;20747;-35
2022/04/14 03:21:12;;;;;;;36.27;27.53;;;;;;;;;;4978731;28;20960;-35
2022/04/14 03:23:39;;;;;;;37.53;27.87;;;;;;;;;;4977622;28;20511;-35
2022/04/14 03:26:10;;;;;;;39.87;29.07;;;;;;;;;;4974148;28;21354;-35
2022/04/14 03:28:37;;;;;;;36.33;26.13;;;;;;;;;;4972432;28;20428;-35
2022/04/14 03:31:04;;;;;;;40.03;28.07;;;;;;;;;;4977972;28;20510;-35
2022/04/14 03:33:30;;;;;;;45.20;30.67;;;;;;;;;;4974474;28;21376;-34
2022/04/14 03:35:57;;;;;;;38.57;28.70;;;;;;;;;;4969014;28;20924;-35
2022/04/14 03:38:23;;;;;;;42.10;30.57;;;;;;;;;;4966687;28;21070;-35
2022/04/14 03:40:49;;;;;;;41.60;27.80;;;;;;;;;;4977226;28;20419;-34
2022/04/14 03:43:16;;;;;;;38.43;27.37;;;;;;;;;;4977479;28;20854;-35
2022/04/14 03:45:42;;;;;;;37.53;26.87;;;;;;;;;;4974793;28;20587;-35
2022/04/14 03:48:09;;;;;;;40.50;28.80;;;;;;;;;;4971657;28;20423;-35
2022/04/14 03:50:35;;;;;;;41.93;29.97;;;;;;;;;;4973353;28;20982;-35
2022/04/14 03:53:01;;;;;;;45.37;32.73;;;;;;;;;;4977455;28;20457;-35
2022/04/14 03:55:27;;;;;;;43.70;31.53;;;;;;;;;;4976596;28;20902;-35
2022/04/14 03:57:53;;;;;;;48.13;34.23;;;;;;;;;;4976285;28;20179;-34
2022/04/14 04:00:19;;;;;;;45.60;34.97;;;;;;;;;;4973066;28;21405;-37
2022/04/14 04:02:46;;;;;;;50.20;38.90;;;;;;;;;;4975977;28;20423;-35
2022/04/14 04:05:12;;;;;;;49.00;36.63;;;;;;;;;;4975066;28;20447;-35
2022/04/14 04:07:38;;;;;;;56.30;41.57;;;;;;;;;;4977525;28;21037;-35
2022/04/14 04:10:05;;;;;;;61.17;41.93;;;;;;;;;;4979508;28;20852;-34
2022/04/14 04:12:31;;;;;;;48.57;38.10;;;;;;;;;;4976305;28;20419;-34
2022/04/14 04:14:57;;;;;;;54.80;37.67;;;;;;;;;;4975766;28;20848;-35
2022/04/14 04:17:23;;;;;;;54.63;38.27;;;;;;;;;;4975542;28;20557;-36
2022/04/14 04:19:50;;;;;;;50.13;37.87;;;;;;;;;;4971541;28;20823;-34
2022/04/14 04:22:16;;;;;;;45.33;33.00;;;;;;;;;;4978514;28;20431;-35
2022/04/14 04:27:27;;;;;;;54.30;38.03;;;;;;;;;;4975338;28;20431;-35
2022/04/14 04:29:53;;;;;;;64.93;42.63;;;;;;;;;;4977086;28;20979;-36
2022/04/14 04:32:19;;;;;;;58.30;43.13;;;;;;;;;;4993049;28;20763;-35
2022/04/14 04:34:45;;;;;;;62.17;42.27;;;;;;;;;;4998515;28;20431;-36
2022/04/14 04:37:11;;;;;;;57.90;41.23;;;;;;;;;;4972752;28;20984;-35
2022/04/14 04:39:37;;;;;;;59.43;42.43;;;;;;;;;;4977119;28;20753;-36
2022/04/14 04:42:04;;;;;;;67.50;44.07;;;;;;;;;;4980343;28;21736;-36
2022/04/14 04:44:30;;;;;;;60.90;43.17;;;;;;;;;;4977245;28;20821;-36
2022/04/14 04:46:56;;;;;;;63.37;43.90;;;;;;;;;;4974086;28;20718;-36
2022/04/14 04:49:22;;;;;;;57.90;42.03;;;;;;;;;;4978398;28;20431;-36
2022/04/14 04:51:48;;;;;;;65.27;47.40;;;;;;;;;;4979256;28;20995;-36
2022/04/14 04:54:14;;;;;;;59.60;45.43;;;;;;;;;;4977226;28;20520;-36
2022/04/14 04:56:40;;;;;;;59.67;44.30;;;;;;;;;;4976645;28;20477;-36
2022/04/14 04:59:06;;;;;;;60.23;43.37;;;;;;;;;;4982123;28;20419;-36
2022/04/14 05:01:32;;;;;;;63.60;46.13;;;;;;;;;;4976963;28;20431;-36
2022/04/14 05:03:58;;;;;;;64.57;47.00;;;;;;;;;;4979132;28;20452;-34
2022/04/14 05:06:24;;;;;;;65.27;44.17;;;;;;;;;;4981654;28;20423;-35
2022/04/14 05:08:50;;;;;;;60.83;43.73;;;;;;;;;;4975912;28;20562;-35
2022/04/14 05:11:16;;;;;;;53.60;38.40;;;;;;;;;;4973759;28;20500;-35
2022/04/14 05:13:43;;;;;;;59.33;38.53;;;;;;;;;;4977006;28;20951;-34
2022/04/14 05:16:09;;;;;;;54.27;38.27;;;;;;;;;;4979162;28;20841;-34
2022/04/14 05:18:35;;;;;;;48.50;37.23;;;;;;;;;;4974792;28;21417;-34
2022/04/14 05:21:01;;;;;;;49.07;34.53;;;;;;;;;;4974934;28;20422;-35
2022/04/14 05:23:27;;;;;;;49.43;34.80;;;;;;;;;;4976001;28;20436;-35
2022/04/14 05:25:56;;;;;;;47.03;34.90;;;;;;;;;;4979662;28;20439;-34
2022/04/14 05:28:22;;;;;;;48.77;34.23;;;;;;;;;;4975573;28;20702;-34
2022/04/14 05:30:48;;;;;;;46.80;31.47;;;;;;;;;;4978183;28;20495;-35
2022/04/14 05:33:15;;;;;;;51.00;34.23;;;;;;;;;;4977744;28;20821;-36
2022/04/14 05:35:43;;;;;;;45.73;32.20;;;;;;;;;;4988837;28;21408;-36
2022/04/14 05:38:09;;;;;;;45.57;31.87;;;;;;;;;;4979119;28;20617;-36
2022/04/14 05:40:41;;;;;;;48.07;33.30;;;;;;;;;;4977870;28;20458;-36
2022/04/14 05:43:07;;;;;;;45.50;29.93;;;;;;;;;;4977047;28;20489;-36
2022/04/14 05:45:34;;;;;;;46.27;32.30;;;;;;;;;;4980562;28;20523;-36
2022/04/14 05:48:00;;;;;;;45.83;33.17;;;;;;;;;;4983129;28;20510;-36
2022/04/14 05:50:27;;;;;;;44.80;30.63;;;;;;;;;;4979795;28;20411;-36
2022/04/14 05:52:55;;;;;;;41.27;29.17;;;;;;;;;;4981344;28;20874;-36
2022/04/14 05:55:21;;;;;;;41.17;29.23;;;;;;;;;;4980054;28;20775;-36
2022/04/14 05:57:47;;;;;;;40.50;28.00;;;;;;;;;;4978984;28;20432;-36
2022/04/14 06:00:16;;;;;;;38.77;26.10;;;;;;;;;;4979391;28;20984;-36
2022/04/14 06:02:42;;;;;;;36.93;25.50;;;;;;;;;;4989394;28;21059;-36
2022/04/14 06:05:08;;;;;;;42.20;26.83;;;;;;;;;;4994899;28;20463;-36
2022/04/14 06:07:35;;;;;;;35.40;24.20;;;;;;;;;;4984810;28;20432;-36
2022/04/14 06:10:01;;;;;;;32.50;21.43;;;;;;;;;;4980174;28;20447;-36
2022/04/14 06:12:27;;;;;;;34.90;22.40;;;;;;;;;;4982203;28;20825;-36
2022/04/14 06:14:53;;;;;;;30.63;22.33;;;;;;;;;;4983722;28;20432;-36
2022/04/14 06:17:19;;;;;;;34.70;21.73;;;;;;;;;;4980521;28;20419;-36
2022/04/14 06:19:45;;;;;;;33.93;22.47;;;;;;;;;;4978674;28;20501;-36
2022/04/14 06:22:11;;;;;;;34.37;21.77;;;;;;;;;;4977902;28;20518;-36
2022/04/14 06:24:37;;;;;;;29.17;20.83;;;;;;;;;;4976362;28;20508;-36
2022/04/14 06:27:04;;;;;;;32.23;21.50;;;;;;;;;;4981668;28;20436;-36
2022/04/14 06:29:30;;;;;;;31.67;21.33;;;;;;;;;;4980116;28;20454;-36
2022/04/14 06:31:56;;;;;;;30.47;20.27;;;;;;;;;;4975939;28;20428;-36
2022/04/14 06:34:22;;;;;;;28.97;19.50;;;;;;;;;;4975402;28;21019;-37
2022/04/14 06:36:48;;;;;;;26.80;18.90;;;;;;;;;;4978679;28;20208;-36
2022/04/14 06:39:14;;;;;;;30.57;18.53;;;;;;;;;;4978493;28;20742;-36
2022/04/14 06:41:40;;;;;;;28.77;18.03;;;;;;;;;;4977950;28;20806;-36
2022/04/14 06:44:06;;;;;;;29.13;18.47;;;;;;;;;;4978830;28;20200;-36
2022/04/14 06:46:33;;;;;;;30.30;18.73;;;;;;;;;;4979092;28;20732;-36
2022/04/14 06:48:59;;;;;;;30.63;19.00;;;;;;;;;;4980796;28;20646;-36
2022/04/14 06:51:25;;;;;;;29.23;18.57;;;;;;;;;;4980036;28;20631;-36
2022/04/14 06:53:51;;;;;;;28.70;18.10;;;;;;;;;;4980277;28;20177;-36
2022/04/14 06:56:17;;;;;;;24.03;17.67;;;;;;;;;;4976764;28;20212;-36
2022/04/14 06:58:43;;;;;;;26.93;18.07;;;;;;;;;;4979712;28;20763;-36
2022/04/14 07:01:09;;;;;;;26.33;18.30;;;;;;;;;;4974683;28;20188;-37
2022/04/14 07:03:36;;;;;;;27.00;18.37;;;;;;;;;;4979389;28;20173;-36
2022/04/14 07:06:02;;;;;;;27.23;18.27;;;;;;;;;;5011210;28;20391;-37
2022/04/14 07:08:28;;;;;;;25.13;17.87;;;;;;;;;;4979353;28;20713;-37
2022/04/14 07:10:54;;;;;;;29.60;19.50;;;;;;;;;;4976417;28;20184;-36
2022/04/14 07:13:21;;;;;;;26.93;17.80;;;;;;;;;;4980659;28;20655;-36
2022/04/14 07:15:47;;;;;;;24.37;18.67;;;;;;;;;;4975546;28;20362;-35
2022/04/14 07:18:13;;;;;;;28.80;19.77;;;;;;;;;;4975322;28;20234;-35
2022/04/14 07:20:39;;;;;;;30.50;21.10;;;;;;;;;;4976831;28;20183;-36
2022/04/14 07:23:06;;;;;;;27.30;19.00;;;;;;;;;;4978022;28;20200;-35
2022/04/14 07:25:33;;;;;;;26.67;20.00;;;;;;;;;;4977813;28;20207;-36
2022/04/14 07:28:00;;;;;;;26.10;19.80;;;;;;;;;;4977023;28;20182;-37
2022/04/14 07:30:26;;;;;;;31.27;20.53;;;;;;;;;;4975263;28;20187;-37
2022/04/14 07:32:53;;;;;;;28.50;19.60;;;;;;;;;;4978364;28;20172;-37
2022/04/14 07:35:22;;;;;;;26.97;18.83;;;;;;;;;;5006385;28;20251;-36
2022/04/14 07:37:48;;;;;;;25.57;18.90;;;;;;;;;;4979596;28;20513;-36
2022/04/14 07:40:15;;;;;;;30.37;19.13;;;;;;;;;;4976909;28;20184;-36
2022/04/14 07:42:42;;;;;;;28.23;19.33;;;;;;;;;;4972276;28;20189;-36
2022/04/14 07:45:09;;;;;;;28.13;17.80;;;;;;;;;;4976291;28;20193;-36
2022/04/14 07:47:35;;;;;;;25.27;17.00;;;;;;;;;;4980531;28;20612;-37
2022/04/14 07:50:01;;;;;;;22.47;16.27;;;;;;;;;;4975814;28;20455;-37
2022/04/14 07:52:28;;;;;;;21.63;16.60;;;;;;;;;;4972087;28;20181;-37
2022/04/14 07:54:54;;;;;;;22.37;16.27;;;;;;;;;;4976690;28;21267;-37
2022/04/14 07:57:20;;;;;;;21.70;16.13;;;;;;;;;;4977573;28;20691;-37
2022/04/14 07:59:46;;;;;;;20.33;15.67;;;;;;;;;;4973740;28;20165;-37
2022/04/14 08:02:12;;;;;;;19.07;14.93;;;;;;;;;;4977442;28;20307;-37
2022/04/14 08:04:39;;;;;;;20.63;14.97;;;;;;;;;;4981674;28;20325;-37
2022/04/14 08:07:05;;;;;;;18.97;13.13;;;;;;;;;;4982719;28;20181;-37
2022/04/14 08:09:31;;;;;;;19.20;13.37;;;;;;;;;;4980260;28;20192;-37
2022/04/14 08:11:57;;;;;;;16.53;12.33;;;;;;;;;;4984258;28;20355;-37
2022/04/14 08:14:24;;;;;;;15.43;12.60;;;;;;;;;;4983245;28;20464;-37
2022/04/14 08:16:50;;;;;;;17.33;12.07;;;;;;;;;;4979423;28;20211;-37
2022/04/14 08:19:16;;;;;;;16.67;11.77;;;;;;;;;;4983512;28;20181;-36
2022/04/14 08:21:42;;;;;;;15.53;10.90;;;;;;;;;;4980508;28;20495;-37
2022/04/14 08:24:08;;;;;;;11.50;9.80;;;;;;;;;;4985779;28;20252;-37
2022/04/14 08:26:34;;;;;;;13.43;9.53;;;;;;;;;;4982622;28;20180;-37
2022/04/14 08:29:00;;;;;;;12.87;9.27;;;;;;;;;;4984989;28;20568;-37
2022/04/14 08:31:27;;;;;;;13.83;9.10;;;;;;;;;;4982336;28;20180;-37
2022/04/14 08:33:53;;;;;;;11.13;8.30;;;;;;;;;;4982571;28;20192;-37
2022/04/14 08:36:21;;;;;;;14.40;9.23;;;;;;;;;;4984014;28;20526;-37
2022/04/14 08:38:48;;;;;;;11.63;7.87;;;;;;;;;;4979157;28;20903;-37
2022/04/14 08:41:17;;;;;;;12.93;8.60;;;;;;;;;;4980717;28;20177;-37
2022/04/14 08:43:56;;;;;;;11.60;7.70;;;;;;;;;;4998023;28;20488;-36
2022/04/14 08:46:23;;;;;;;13.40;8.37;;;;;;;;;;4989120;28;20346;-37
2022/04/14 08:48:52;;;;;;;12.27;7.70;;;;;;;;;;4981740;28;20173;-37
2022/04/14 08:51:20;;;;;;;10.07;7.40;;;;;;;;;;4983835;28;20476;-37
2022/04/14 08:53:47;;;;;;;14.17;7.23;;;;;;;;;;4983032;28;20221;-37
2022/04/14 08:56:14;;;;;;;9.70;6.77;;;;;;;;;;4981104;28;20187;-37
2022/04/14 08:58:42;;;;;;;9.67;6.50;;;;;;;;;;4981870;28;20576;-37
2022/04/14 09:01:08;;;;;;;9.60;6.47;;;;;;;;;;4981769;28;20594;-37
2022/04/14 09:03:35;;;;;;;13.40;7.30;;;;;;;;;;4980077;28;20184;-37
2022/04/14 09:06:01;;;;;;;9.00;6.87;;;;;;;;;;4980862;28;20700;-37
2022/04/14 09:08:27;;;;;;;7.50;6.50;;;;;;;;;;4981790;28;20823;-37
2022/04/14 09:10:53;;;;;;;10.33;6.80;;;;;;;;;;4978694;28;20216;-38
2022/04/14 09:13:20;;;;;;;10.13;7.50;;;;;;;;;;4976903;28;20177;-37
2022/04/14 09:15:47;;;;;;;10.50;7.70;;;;;;;;;;4980532;28;20296;-37
2022/04/14 09:18:14;;;;;;;10.43;6.50;;;;;;;;;;4983550;28;20177;-37
2022/04/14 09:20:42;;;;;;;6.63;5.70;;;;;;;;;;4980218;28;21012;-37
2022/04/14 09:23:13;;;;;;;11.53;7.17;;;;;;;;;;4976826;28;20294;-37
2022/04/14 09:25:39;;;;;;;9.40;6.50;;;;;;;;;;4980777;28;20604;-37
2022/04/14 09:28:11;;;;;;;7.63;5.53;;;;;;;;;;4983271;28;20172;-38
2022/04/14 09:30:37;;;;;;;6.63;4.63;;;;;;;;;;4994655;28;20183;-37
2022/04/14 09:33:03;;;;;;;7.33;3.40;;;;;;;;;;4979519;28;20243;-37
2022/04/14 09:35:31;;;;;;;5.77;3.03;;;;;;;;;;4978278;28;20272;-37
2022/04/14 09:38:03;;;;;;;8.50;5.73;;;;;;;;;;4977633;28;20193;-37
2022/04/14 09:40:30;;;;;;;10.10;5.07;;;;;;;;;;4980415;28;20353;-38
2022/04/14 09:42:56;;;;;;;8.10;5.93;;;;;;;;;;4979705;28;20643;-37
2022/04/14 09:45:27;;;;;;;7.70;5.43;;;;;;;;;;4980607;28;20331;-37
2022/04/14 09:47:53;;;;;;;8.43;5.83;;;;;;;;;;4982020;28;20170;-37
2022/04/14 09:50:43;;;;;;;8.43;5.47;;;;;;;;;;4982182;28;20514;-37
2022/04/14 09:53:12;;;;;;;8.40;5.20;;;;;;;;;;4975300;28;20578;-37
2022/04/14 09:55:42;;;;;;;10.53;5.43;;;;;;;;;;4980175;28;20398;-37
2022/04/14 09:58:09;;;;;;;8.40;5.20;;;;;;;;;;4981085;28;20887;-37
2022/04/14 10:00:41;;;;;;;8.67;5.50;;;;;;;;;;4980401;28;20901;-37
2022/04/14 10:03:11;;;;;;;9.47;5.40;;;;;;;;;;4979261;28;20300;-37
2022/04/14 10:05:37;;;;;;;9.10;5.30;;;;;;;;;;4977693;28;21172;-37
2022/04/14 10:08:07;;;;;;;9.00;5.50;;;;;;;;;;4979944;28;20272;-37
2022/04/14 10:10:34;;;;;;;9.87;5.10;;;;;;;;;;4981315;28;20244;-37
2022/04/14 10:13:05;;;;;;;6.37;4.93;;;;;;;;;;4979357;28;20212;-37
2022/04/14 10:15:32;;;;;;;7.77;5.20;;;;;;;;;;5011477;28;20180;-37
2022/04/14 10:17:58;;;;;;;8.43;4.93;;;;;;;;;;4975717;28;20542;-37
2022/04/14 10:20:25;;;;;;;11.03;5.00;;;;;;;;;;4980435;28;20170;-37
2022/04/14 10:22:51;;;;;;;9.33;5.20;;;;;;;;;;4983323;28;20235;-37
2022/04/14 10:25:18;;;;;;;10.20;4.67;;;;;;;;;;4976180;28;20802;-36
2022/04/14 10:27:44;;;;;;;8.00;4.67;;;;;;;;;;4973671;28;20184;-36
2022/04/14 10:30:11;;;;;;;7.33;4.30;;;;;;;;;;4977961;28;20177;-37
2022/04/14 10:32:37;;;;;;;8.77;4.33;;;;;;;;;;4980518;28;20493;-36
2022/04/14 10:35:04;;;;;;;7.57;4.33;;;;;;;;;;4978363;28;21092;-37
2022/04/14 10:37:36;;;;;;;7.60;4.80;;;;;;;;;;4976330;28;20267;-36
2022/04/14 10:40:03;;;;;;;8.20;4.57;;;;;;;;;;4979981;28;20786;-36
2022/04/14 10:42:32;;;;;;;9.20;4.53;;;;;;;;;;4983119;28;20636;-37
2022/04/14 10:44:58;;;;;;;8.33;4.03;;;;;;;;;;4978228;28;20224;-36
2022/04/14 10:47:34;;;;;;;6.87;4.20;;;;;;;;;;4974924;28;20172;-37
2022/04/14 10:50:00;;;;;;;7.27;4.90;;;;;;;;;;4977479;28;20204;-36
2022/04/14 10:52:28;;;;;;;8.87;6.00;;;;;;;;;;4981120;28;20658;-36
2022/04/14 10:55:01;;;;;;;9.37;4.97;;;;;;;;;;4981207;28;20184;-36
2022/04/14 10:57:40;;;;;;;9.07;5.33;;;;;;;;;;4978503;28;20487;-37
2022/04/14 11:00:22;;;;;;;7.60;5.33;;;;;;;;;;4978963;28;20168;-36
2022/04/14 11:03:06;;;;;;;7.73;4.90;;;;;;;;;;4981601;28;20170;-36
2022/04/14 11:05:39;;;;;;;7.30;5.27;;;;;;;;;;4977771;28;20324;-36
2022/04/14 11:08:25;;;;;;;10.10;5.73;;;;;;;;;;4981129;28;20800;-37
2022/04/14 11:11:11;;;;;;;8.87;5.47;;;;;;;;;;4980821;28;20866;-37
2022/04/14 11:13:55;;;;;;;9.10;5.47;;;;;;;;;;4976187;28;20178;-37
2022/04/14 11:16:48;;;;;;;8.50;5.40;;;;;;;;;;4978785;28;20207;-37
2022/04/14 11:19:24;;;;;;;8.23;5.00;;;;;;;;;;4979102;28;20666;-37
2022/04/14 11:22:04;;;;;;;9.73;5.83;;;;;;;;;;4985188;28;20165;-36
2022/04/14 11:24:40;;;;;;;10.63;5.20;;;;;;;;;;4977720;28;20533;-36
2022/04/14 11:27:12;;;;;;;8.50;5.67;;;;;;;;;;4977959;28;20182;-37
2022/04/14 11:29:39;;;;;;;11.17;5.63;;;;;;;;;;4983610;28;20866;-36
2022/04/14 11:32:05;;;;;;;8.70;5.47;;;;;;;;;;4979247;28;20418;-37
2022/04/14 11:34:35;;;;;;;7.37;5.17;;;;;;;;;;4978475;28;20181;-37
2022/04/14 11:37:01;;;;;;;10.67;5.53;;;;;;;;;;4973698;28;20554;-37
2022/04/14 11:39:28;;;;;;;8.90;5.10;;;;;;;;;;4976677;28;20626;-36
2022/04/14 11:41:55;;;;;;;12.00;5.23;;;;;;;;;;4977083;28;20644;-36
2022/04/14 11:44:32;;;;;;;8.67;4.63;;;;;;;;;;4977656;28;20720;-36
2022/04/14 11:46:59;;;;;;;10.30;5.57;;;;;;;;;;4971323;28;20173;-36
2022/04/14 11:49:25;;;;;;;7.53;4.23;;;;;;;;;;4979469;28;20177;-36
2022/04/14 11:51:52;;;;;;;8.43;4.30;;;;;;;;;;4980506;28;20587;-37
2022/04/14 11:54:22;;;;;;;9.17;4.67;;;;;;;;;;4975873;28;20181;-36
2022/04/14 11:56:52;;;;;;;9.10;5.40;;;;;;;;;;4972318;28;20667;-36
2022/04/14 11:59:19;;;;;;;9.83;5.43;;;;;;;;;;4976679;28;20238;-37
2022/04/14 12:01:50;;;;;;;7.30;4.70;;;;;;;;;;4977549;28;20215;-36
2022/04/14 12:04:16;;;;;;;8.57;5.00;;;;;;;;;;4977582;28;20572;-36
2022/04/14 12:06:52;;;;;;;9.37;4.80;;;;;;;;;;4972550;28;20177;-37
2022/04/14 12:09:20;;;;;;;8.53;5.27;;;;;;;;;;4977306;28;20207;-36
2022/04/14 12:11:46;;;;;;;8.27;4.00;;;;;;;;;;4980022;28;20204;-34
2022/04/14 12:14:13;;;;;;;7.10;4.10;;;;;;;;;;4980962;28;20185;-34
2022/04/14 12:16:52;;;;;;;8.73;4.43;;;;;;;;;;4975939;28;20791;-34
2022/04/14 12:19:19;;;;;;;6.20;3.70;;;;;;;;;;4978149;28;20228;-35
2022/04/14 12:21:59;;;;;;;7.33;4.27;;;;;;;;;;4980321;28;20882;-35
2022/04/14 12:24:25;;;;;;;7.03;4.23;;;;;;;;;;4974276;28;20825;-35
2022/04/14 12:26:51;;;;;;;11.30;4.67;;;;;;;;;;4976953;28;20338;-36
2022/04/14 12:29:19;;;;;;;9.20;4.37;;;;;;;;;;4974995;28;22006;-35
2022/04/14 12:31:46;;;;;;;7.80;4.30;;;;;;;;;;4975180;28;20771;-36
2022/04/14 12:34:12;;;;;;;7.50;4.57;;;;;;;;;;4980354;28;20658;-35
2022/04/14 12:36:39;;;;;;;10.63;4.07;;;;;;;;;;4978767;28;20423;-35
2022/04/14 12:39:18;;;;;;;6.87;4.20;;;;;;;;;;4972052;28;21354;-36
2022/04/14 12:41:44;;;;;;;8.43;5.03;;;;;;;;;;4978529;28;20653;-36
2022/04/14 12:44:16;;;;;;;11.00;6.10;;;;;;;;;;4979609;28;20331;-36
2022/04/14 12:46:42;;;;;;;8.17;5.20;;;;;;;;;;4975412;28;20231;-36
2022/04/14 12:49:09;;;;;;;9.27;5.40;;;;;;;;;;4976513;28;20276;-36
2022/04/14 12:51:40;;;;;;;9.30;4.20;;;;;;;;;;4977874;28;20600;-36
2022/04/14 12:54:07;;;;;;;9.40;5.47;;;;;;;;;;4984173;28;20222;-36
2022/04/14 12:56:34;;;;;;;8.53;4.50;;;;;;;;;;4984640;28;20169;-36
2022/04/14 12:59:07;;;;;;;7.47;3.90;;;;;;;;;;4980643;28;20200;-36
2022/04/14 13:01:52;;;;;;;8.40;4.37;;;;;;;;;;4983497;28;20177;-36
2022/04/14 13:04:19;;;;;;;10.30;4.90;;;;;;;;;;4982061;28;20276;-37
2022/04/14 13:06:58;;;;;;;10.13;5.07;;;;;;;;;;4979615;28;20177;-35
2022/04/14 13:09:24;;;;;;;11.27;5.70;;;;;;;;;;4979079;28;20531;-36
2022/04/14 13:11:50;;;;;;;10.30;5.97;;;;;;;;;;4981807;28;20173;-36
2022/04/14 13:14:26;;;;;;;10.87;6.23;;;;;;;;;;4977711;28;20177;-36
2022/04/14 13:16:54;;;;;;;12.30;5.70;;;;;;;;;;4977288;28;20564;-35
2022/04/14 13:19:21;;;;;;;10.47;5.47;;;;;;;;;;4979891;28;20255;-35
2022/04/14 13:21:47;;;;;;;9.93;5.57;;;;;;;;;;4980667;28;20219;-35
2022/04/14 13:24:13;;;;;;;12.53;5.80;;;;;;;;;;4978774;28;20199;-35
2022/04/14 13:26:40;;;;;;;9.13;5.60;;;;;;;;;;4977126;28;21369;-35
2022/04/14 13:29:08;;;;;;;11.33;5.77;;;;;;;;;;4980378;28;20839;-35
2022/04/14 13:31:34;;;;;;;9.87;5.80;;;;;;;;;;4982376;28;20271;-36
2022/04/14 13:34:00;;;;;;;12.33;6.10;;;;;;;;;;4979950;28;20256;-36
2022/04/14 13:36:27;;;;;;;10.10;6.20;;;;;;;;;;4975629;28;20560;-35
2022/04/14 13:38:53;;;;;;;10.57;5.83;;;;;;;;;;4981147;28;20173;-35
2022/04/14 13:41:21;;;;;;;10.00;5.57;;;;;;;;;;4980269;28;20514;-35
2022/04/14 13:43:47;;;;;;;12.27;5.37;;;;;;;;;;4979189;28;21169;-36
2022/04/14 13:46:14;;;;;;;12.77;6.17;;;;;;;;;;4979452;28;20688;-36
2022/04/14 13:48:40;;;;;;;9.80;5.77;;;;;;;;;;4992678;28;20671;-35
2022/04/14 13:51:06;;;;;;;11.00;5.50;;;;;;;;;;4979513;28;20595;-36
2022/04/14 13:53:32;;;;;;;9.50;5.50;;;;;;;;;;4977368;28;20207;-36
2022/04/14 13:55:58;;;;;;;9.63;5.10;;;;;;;;;;4974683;28;20263;-36
2022/04/14 13:58:24;;;;;;;12.43;5.53;;;;;;;;;;4980568;28;20471;-36
2022/04/14 14:00:51;;;;;;;12.20;6.00;;;;;;;;;;4982175;28;20213;-35
2022/04/14 14:03:17;;;;;;;10.13;4.93;;;;;;;;;;4975473;28;20216;-36
2022/04/14 14:05:44;;;;;;;7.33;4.67;;;;;;;;;;4973686;28;20788;-36
2022/04/14 14:08:10;;;;;;;6.40;3.70;;;;;;;;;;4970191;28;20215;-36
2022/04/14 14:10:37;;;;;;;10.00;4.60;;;;;;;;;;4971204;28;20581;-36
2022/04/14 14:13:04;;;;;;;8.00;4.23;;;;;;;;;;4974922;28;20475;-35
2022/04/14 14:15:30;;;;;;;6.10;3.63;;;;;;;;;;4979945;28;20266;-36
2022/04/14 14:17:56;;;;;;;6.53;3.70;;;;;;;;;;4975142;28;20260;-35
2022/04/14 14:20:22;;;;;;;8.13;4.00;;;;;;;;;;4977322;28;20458;-35
2022/04/14 14:22:49;;;;;;;8.00;3.80;;;;;;;;;;4976765;28;20184;-35
2022/04/14 14:25:15;;;;;;;8.17;4.20;;;;;;;;;;4980644;28;20274;-36
2022/04/14 14:27:41;;;;;;;5.93;3.40;;;;;;;;;;4975847;28;20604;-36
2022/04/14 14:30:08;;;;;;;8.77;3.90;;;;;;;;;;4977153;28;20581;-36